Time;durP1;ratioP1;P1;durP2;ratioP2;P2;SDS_P1;SDS_P2;PMS_P1;PMS_P2;Temp;Humidity;BMP_temperature;BMP_pressure;BME280_temperature;BME280_humidity;BME280_pressure;Samples;Min_cycle;Max_cycle;Signal;HPM_P1;HPM_P2
2022/07/15 00:00:08;;;;;;;10.63;5.73;;;25.10;23.00;;;;;;5032659;28;20202;-68
2022/07/15 00:02:34;;;;;;;13.77;6.10;;;24.90;23.40;;;;;;5031154;28;20211;-68
2022/07/15 00:05:00;;;;;;;10.43;5.67;;;24.80;23.10;;;;;;5032727;28;20415;-68
2022/07/15 00:07:25;;;;;;;9.20;5.60;;;24.90;23.70;;;;;;5030896;28;20191;-68
2022/07/15 00:12:35;;;;;;;10.27;6.17;;;24.60;24.70;;;;;;5031796;28;20202;-68
2022/07/15 00:15:01;;;;;;;9.87;5.80;;;24.60;24.40;;;;;;5031741;28;20839;-67
2022/07/15 00:17:27;;;;;;;14.80;5.80;;;24.90;23.10;;;;;;5032766;28;20180;-68
2022/07/15 00:19:53;;;;;;;15.87;5.93;;;25.10;23.10;;;;;;5031154;28;20231;-68
2022/07/15 00:22:18;;;;;;;7.37;5.47;;;25.00;23.40;;;;;;5032117;28;20659;-68
2022/07/15 00:24:44;;;;;;;9.10;6.00;;;24.90;22.70;;;;;;5028962;28;20208;-68
2022/07/15 00:27:09;;;;;;;10.53;6.00;;;24.60;22.70;;;;;;5030628;28;20179;-68
2022/07/15 00:29:35;;;;;;;9.73;6.13;;;24.60;23.40;;;;;;5031281;28;20278;-68
2022/07/15 00:32:01;;;;;;;11.77;5.87;;;24.50;23.00;;;;;;5030692;28;20181;-68
2022/07/15 00:34:26;;;;;;;11.93;5.53;;;24.40;23.70;;;;;;5031553;28;20180;-68
2022/07/15 00:36:52;;;;;;;10.87;6.43;;;24.30;23.90;;;;;;5031208;28;20569;-68
2022/07/15 00:39:18;;;;;;;10.13;5.80;;;24.20;24.60;;;;;;5029846;28;20521;-68
2022/07/15 00:41:44;;;;;;;11.70;5.20;;;24.20;23.80;;;;;;5030409;28;20181;-68
2022/07/15 00:44:11;;;;;;;13.67;5.83;;;24.40;23.50;;;;;;5030962;28;20222;-68
2022/07/15 00:46:37;;;;;;;15.30;6.27;;;24.30;23.80;;;;;;5031647;28;20475;-68
2022/07/15 00:49:06;;;;;;;9.90;5.90;;;24.00;23.50;;;;;;5023214;28;20549;-68
2022/07/15 00:51:52;;;;;;;9.00;5.80;;;24.00;23.00;;;;;;5030590;28;20582;-68
2022/07/15 00:54:23;;;;;;;26.33;6.50;;;24.00;24.00;;;;;;5030168;28;20884;-68
2022/07/15 00:56:51;;;;;;;11.30;5.23;;;24.10;22.70;;;;;;5026933;28;20782;-68
2022/07/15 00:59:19;;;;;;;13.10;5.67;;;24.20;22.90;;;;;;5030396;28;20746;-68
2022/07/15 01:01:46;;;;;;;6.80;5.03;;;24.00;22.90;;;;;;5025321;28;20434;-68
2022/07/15 01:04:13;;;;;;;9.90;5.50;;;24.00;23.60;;;;;;5020022;28;20434;-68
2022/07/15 01:06:38;;;;;;;10.93;5.43;;;24.10;22.50;;;;;;5030514;28;20952;-67
2022/07/15 01:09:04;;;;;;;11.97;5.93;;;24.00;23.50;;;;;;5031863;28;20446;-68
2022/07/15 01:11:30;;;;;;;8.20;5.73;;;24.00;23.10;;;;;;5029350;28;20193;-68
2022/07/15 01:13:58;;;;;;;11.30;6.00;;;24.10;22.70;;;;;;5031564;28;20430;-68
2022/07/15 01:16:24;;;;;;;10.93;5.57;;;24.20;23.10;;;;;;5029303;28;20615;-68
2022/07/15 01:18:50;;;;;;;10.33;5.60;;;24.30;22.70;;;;;;5028582;28;20462;-68
2022/07/15 01:21:15;;;;;;;8.50;5.40;;;24.30;22.70;;;;;;5030726;28;20797;-68
2022/07/15 01:23:42;;;;;;;7.03;5.20;;;24.10;23.70;;;;;;5031187;28;20212;-68
2022/07/15 01:26:12;;;;;;;6.80;5.10;;;24.00;24.60;;;;;;5025875;28;20237;-68
2022/07/15 01:28:39;;;;;;;9.20;5.63;;;23.80;23.80;;;;;;5027416;28;20822;-68
2022/07/15 01:31:05;;;;;;;12.17;5.97;;;23.60;24.40;;;;;;5028273;28;20434;-68
2022/07/15 01:33:31;;;;;;;8.10;5.50;;;23.40;25.00;;;;;;5027935;28;20435;-68
2022/07/15 01:35:58;;;;;;;9.30;5.90;;;23.30;25.10;;;;;;5030940;28;20421;-68
2022/07/15 01:38:24;;;;;;;9.90;5.97;;;23.10;25.90;;;;;;5028076;28;20469;-69
2022/07/15 01:40:51;;;;;;;9.93;5.80;;;22.90;25.50;;;;;;5030503;28;20535;-68
2022/07/15 01:43:16;;;;;;;7.40;5.53;;;22.90;25.90;;;;;;5028690;28;20471;-68
2022/07/15 01:45:43;;;;;;;18.23;5.57;;;23.00;24.90;;;;;;5022440;28;20811;-68
2022/07/15 01:49:21;;;;;;;11.50;5.97;;;23.00;25.50;;;;;;5042305;28;20926;-68
2022/07/15 01:50:57;;;;;;;7.33;5.50;;;22.90;26.40;;;;;;5032493;28;20423;-67
2022/07/15 01:53:23;;;;;;;10.80;5.93;;;22.70;27.30;;;;;;5032139;28;20909;-68
2022/07/15 01:55:49;;;;;;;9.30;6.20;;;22.60;26.60;;;;;;5029148;28;20425;-68
2022/07/15 01:58:15;;;;;;;22.23;6.40;;;22.50;27.40;;;;;;5029551;28;20514;-69
2022/07/15 02:00:41;;;;;;;9.73;6.23;;;22.60;27.90;;;;;;5030248;28;20451;-68
2022/07/15 02:03:07;;;;;;;10.90;6.17;;;22.50;27.60;;;;;;5028968;28;20204;-68
2022/07/15 02:05:34;;;;;;;19.70;7.20;;;22.50;27.40;;;;;;5027927;28;20193;-68
2022/07/15 02:08:00;;;;;;;8.37;5.87;;;22.50;27.30;;;;;;5029926;28;20422;-68
2022/07/15 02:10:39;;;;;;;10.57;6.23;;;22.50;27.80;;;;;;5028299;28;20430;-67
2022/07/15 02:13:08;;;;;;;12.03;6.83;;;22.50;27.50;;;;;;5028655;28;20569;-68
2022/07/15 02:15:34;;;;;;;10.67;6.20;;;22.40;27.30;;;;;;5022089;28;20425;-68
2022/07/15 02:18:00;;;;;;;15.17;6.70;;;22.50;27.00;;;;;;5026815;28;20428;-68
2022/07/15 02:20:26;;;;;;;10.90;6.53;;;22.70;26.50;;;;;;5030634;28;20202;-68
2022/07/15 02:22:51;;;;;;;10.20;6.30;;;22.80;28.00;;;;;;5026274;28;20299;-68
2022/07/15 02:25:17;;;;;;;19.60;6.63;;;22.40;27.50;;;;;;5028322;28;20987;-69
2022/07/15 02:27:43;;;;;;;10.97;6.10;;;22.30;27.60;;;;;;5028808;28;20188;-67
2022/07/15 02:30:09;;;;;;;10.80;5.80;;;22.20;28.40;;;;;;5025337;28;20203;-67
2022/07/15 02:32:35;;;;;;;13.10;5.67;;;22.00;28.50;;;;;;5029272;28;20178;-68
2022/07/15 02:35:00;;;;;;;12.47;6.47;;;22.00;28.50;;;;;;5026016;28;20810;-68
2022/07/15 02:37:26;;;;;;;11.57;6.00;;;21.90;27.80;;;;;;5029160;28;20181;-68
2022/07/15 02:39:52;;;;;;;8.80;6.33;;;21.80;27.90;;;;;;5030023;28;20281;-67
2022/07/15 02:42:17;;;;;;;8.30;5.93;;;21.70;28.10;;;;;;5030124;28;20199;-67
2022/07/15 02:44:43;;;;;;;7.40;5.87;;;21.70;28.70;;;;;;5021914;28;20187;-67
2022/07/15 02:47:09;;;;;;;10.47;5.87;;;21.50;28.40;;;;;;5025890;28;20178;-67
2022/07/15 02:49:34;;;;;;;8.57;5.97;;;21.60;28.40;;;;;;5029277;28;20210;-68
2022/07/15 02:52:00;;;;;;;8.87;6.03;;;21.60;28.80;;;;;;5029609;28;20267;-67
2022/07/15 02:54:25;;;;;;;10.73;7.13;;;21.70;28.20;;;;;;5030301;28;20528;-67
2022/07/15 02:56:51;;;;;;;9.40;6.30;;;21.80;28.40;;;;;;5029758;28;20181;-67
2022/07/15 02:59:17;;;;;;;7.93;5.80;;;21.80;28.20;;;;;;5022956;28;20205;-67
2022/07/15 03:01:42;;;;;;;9.77;5.70;;;21.60;28.30;;;;;;5027651;28;20182;-67
2022/07/15 03:04:08;;;;;;;9.53;5.90;;;21.60;28.30;;;;;;5027292;28;20294;-67
2022/07/15 03:06:34;;;;;;;8.83;5.97;;;21.50;28.30;;;;;;5029827;28;20229;-68
2022/07/15 03:08:59;;;;;;;11.20;5.50;;;21.50;28.40;;;;;;5026859;28;20204;-67
2022/07/15 03:11:25;;;;;;;10.33;5.83;;;21.60;27.90;;;;;;5028937;28;20205;-69
2022/07/15 03:13:51;;;;;;;8.77;5.90;;;21.60;27.70;;;;;;5027632;28;20445;-67
2022/07/15 03:16:16;;;;;;;11.30;6.50;;;21.60;27.90;;;;;;5029074;28;20267;-70
2022/07/15 03:18:42;;;;;;;12.37;5.80;;;21.50;27.80;;;;;;5027248;28;20203;-67
2022/07/15 03:21:08;;;;;;;10.90;5.50;;;21.50;28.10;;;;;;5029392;28;20186;-67
2022/07/15 03:23:33;;;;;;;14.70;6.20;;;21.70;28.10;;;;;;5027108;28;20209;-67
2022/07/15 03:25:59;;;;;;;16.63;5.70;;;21.60;28.90;;;;;;5024017;28;20191;-67
2022/07/15 03:28:24;;;;;;;7.13;5.80;;;21.50;29.00;;;;;;5031711;28;20226;-68
2022/07/15 03:30:50;;;;;;;13.50;6.30;;;21.50;28.90;;;;;;5032322;28;20523;-67
2022/07/15 03:33:16;;;;;;;15.40;6.50;;;21.60;28.80;;;;;;5032514;28;20190;-67
2022/07/15 03:35:42;;;;;;;17.90;6.07;;;21.60;29.70;;;;;;5033591;28;20210;-67
2022/07/15 03:38:09;;;;;;;10.53;6.50;;;21.50;29.00;;;;;;5023085;28;20205;-67
2022/07/15 03:40:34;;;;;;;8.97;6.13;;;21.30;29.10;;;;;;5030048;28;20493;-67
2022/07/15 03:43:00;;;;;;;10.03;6.37;;;21.10;29.90;;;;;;5032265;28;20459;-67
2022/07/15 03:45:25;;;;;;;9.80;6.70;;;21.10;29.50;;;;;;5024817;28;20259;-67
2022/07/15 03:47:51;;;;;;;8.40;5.93;;;21.00;29.30;;;;;;5026267;28;20173;-68
2022/07/15 03:50:17;;;;;;;9.23;5.53;;;20.90;29.00;;;;;;5022964;28;20208;-67
2022/07/15 03:52:42;;;;;;;8.83;5.77;;;21.00;29.10;;;;;;5032491;28;20199;-67
2022/07/15 03:55:09;;;;;;;11.60;5.97;;;20.90;28.50;;;;;;5032697;28;20183;-67
2022/07/15 03:57:35;;;;;;;8.00;5.10;;;21.60;29.40;;;;;;5032015;28;20287;-67
2022/07/15 04:00:01;;;;;;;9.40;6.10;;;20.80;28.60;;;;;;5031413;28;20550;-67
2022/07/15 04:02:26;;;;;;;10.93;6.10;;;20.90;29.30;;;;;;5025558;28;20702;-67
2022/07/15 04:04:52;;;;;;;14.73;6.03;;;20.90;29.00;;;;;;5029339;28;20175;-67
2022/07/15 04:07:18;;;;;;;14.20;6.03;;;21.00;29.40;;;;;;5031642;28;20705;-67
2022/07/15 04:09:43;;;;;;;10.30;6.00;;;21.00;29.40;;;;;;5032877;28;20201;-67
2022/07/15 04:12:10;;;;;;;12.47;6.60;;;20.90;29.80;;;;;;5030974;28;20181;-67
2022/07/15 04:14:36;;;;;;;13.13;6.00;;;20.90;29.40;;;;;;5032281;28;20583;-67
2022/07/15 04:17:02;;;;;;;15.20;6.83;;;20.90;30.10;;;;;;5032738;28;20484;-67
2022/07/15 04:19:28;;;;;;;10.83;5.80;;;20.80;29.70;;;;;;5031305;28;20486;-68
2022/07/15 04:21:54;;;;;;;10.27;6.37;;;20.80;29.40;;;;;;5025849;28;20519;-68
2022/07/15 04:24:20;;;;;;;9.90;5.37;;;20.80;29.20;;;;;;5028266;28;20473;-66
2022/07/15 04:26:45;;;;;;;12.63;6.47;;;20.90;28.50;;;;;;5032169;28;20182;-67
2022/07/15 04:29:11;;;;;;;8.90;5.90;;;21.10;29.20;;;;;;5032340;28;20205;-66
2022/07/15 04:31:37;;;;;;;9.97;6.73;;;21.10;28.60;;;;;;5026889;28;20677;-67
2022/07/15 04:34:02;;;;;;;11.67;6.97;;;21.10;29.00;;;;;;5025104;28;20184;-67
2022/07/15 04:36:28;;;;;;;10.00;6.70;;;21.20;29.30;;;;;;5029643;28;20232;-67
2022/07/15 04:38:54;;;;;;;8.90;6.20;;;21.30;30.30;;;;;;5019996;28;20211;-67
2022/07/15 04:41:19;;;;;;;11.43;6.50;;;21.30;29.80;;;;;;5027218;28;20184;-67
2022/07/15 04:43:45;;;;;;;9.63;6.40;;;21.20;30.00;;;;;;5035448;28;20255;-67
2022/07/15 04:46:11;;;;;;;11.73;6.37;;;21.30;30.60;;;;;;5031274;28;20206;-67
2022/07/15 04:51:21;;;;;;;11.00;6.67;;;21.30;29.40;;;;;;5031228;28;20672;-67
2022/07/15 04:53:46;;;;;;;15.70;7.47;;;21.30;29.20;;;;;;5031717;28;20469;-67
2022/07/15 04:56:13;;;;;;;11.70;6.93;;;21.30;29.30;;;;;;5029119;28;20201;-67
2022/07/15 04:58:39;;;;;;;13.00;8.03;;;21.30;28.90;;;;;;5029784;28;20213;-67
2022/07/15 05:01:04;;;;;;;14.63;7.93;;;21.50;27.00;;;;;;5031070;28;20427;-67
2022/07/15 05:03:30;;;;;;;13.40;7.40;;;21.70;27.20;;;;;;5029419;28;20476;-68
2022/07/15 05:05:56;;;;;;;16.80;7.67;;;21.90;27.20;;;;;;5025405;28;20437;-67
2022/07/15 05:08:21;;;;;;;12.67;7.80;;;21.90;28.20;;;;;;5029473;28;20198;-68
2022/07/15 05:10:47;;;;;;;14.70;6.93;;;21.70;27.90;;;;;;5029619;28;20219;-68
2022/07/15 05:13:13;;;;;;;15.60;7.07;;;21.60;28.60;;;;;;5026143;28;20191;-67
2022/07/15 05:15:39;;;;;;;12.27;7.20;;;21.60;28.70;;;;;;5030932;28;20186;-67
2022/07/15 05:18:05;;;;;;;15.37;7.80;;;21.50;28.80;;;;;;5024311;28;20218;-67
2022/07/15 05:20:30;;;;;;;14.57;7.37;;;21.40;27.00;;;;;;5030279;28;20484;-67
2022/07/15 05:22:56;;;;;;;14.83;6.93;;;21.30;27.40;;;;;;5030297;28;20203;-67
2022/07/15 05:25:21;;;;;;;11.50;6.97;;;21.70;27.30;;;;;;5029443;28;20530;-68
2022/07/15 05:27:47;;;;;;;16.03;6.90;;;22.00;27.40;;;;;;5023703;28;20611;-67
2022/07/15 05:30:15;;;;;;;11.70;7.23;;;22.20;26.80;;;;;;5029657;28;20200;-67
2022/07/15 05:32:41;;;;;;;10.80;6.20;;;22.30;27.60;;;;;;5029957;28;20890;-67
2022/07/15 05:35:07;;;;;;;14.10;6.90;;;22.40;27.30;;;;;;5031672;28;20961;-67
2022/07/15 05:37:32;;;;;;;9.87;5.90;;;22.60;26.50;;;;;;5029376;28;20180;-67
2022/07/15 05:39:58;;;;;;;11.80;6.80;;;22.70;27.00;;;;;;5029802;28;20562;-68
2022/07/15 05:42:24;;;;;;;14.93;6.30;;;22.50;26.80;;;;;;5028881;28;20626;-68
2022/07/15 05:44:50;;;;;;;12.70;6.70;;;22.50;26.40;;;;;;5029830;28;20291;-67
2022/07/15 05:47:16;;;;;;;9.37;5.93;;;22.00;26.60;;;;;;5030109;28;20189;-67
2022/07/15 05:49:41;;;;;;;12.57;6.57;;;22.00;27.00;;;;;;5029554;28;20208;-67
2022/07/15 05:52:08;;;;;;;9.73;6.97;;;22.10;28.20;;;;;;5029879;28;20466;-67
2022/07/15 05:54:33;;;;;;;13.93;6.40;;;22.40;26.50;;;;;;5028997;28;20207;-69
2022/07/15 05:56:59;;;;;;;16.90;7.00;;;22.70;25.90;;;;;;5021346;28;20437;-69
2022/07/15 05:59:25;;;;;;;17.20;6.73;;;22.90;25.50;;;;;;5023880;28;20207;-69
2022/07/15 06:01:50;;;;;;;10.23;6.60;;;23.00;25.70;;;;;;5030883;28;20560;-69
2022/07/15 06:04:16;;;;;;;10.83;6.13;;;23.20;25.20;;;;;;5028350;28;20211;-69
2022/07/15 06:06:41;;;;;;;8.13;5.97;;;22.80;26.20;;;;;;5030812;28;20272;-69
2022/07/15 06:09:07;;;;;;;11.60;6.27;;;22.60;26.00;;;;;;5031129;28;20676;-69
2022/07/15 06:11:33;;;;;;;12.13;6.70;;;22.60;25.80;;;;;;5025261;28;20263;-69
2022/07/15 06:13:59;;;;;;;10.63;6.17;;;21.80;26.90;;;;;;5026713;28;20222;-69
2022/07/15 06:16:25;;;;;;;11.60;6.47;;;21.20;28.00;;;;;;5029927;28;20506;-69
2022/07/15 06:18:51;;;;;;;9.47;6.33;;;21.80;28.00;;;;;;5030123;28;20352;-69
2022/07/15 06:21:17;;;;;;;16.33;6.43;;;22.10;27.50;;;;;;5028113;28;20455;-69
2022/07/15 06:23:42;;;;;;;15.70;6.90;;;22.20;27.50;;;;;;5028477;28;20203;-70
2022/07/15 06:26:09;;;;;;;10.87;6.20;;;22.10;27.50;;;;;;5027055;28;20643;-68
2022/07/15 06:28:35;;;;;;;11.87;6.90;;;21.70;28.30;;;;;;5030577;28;20196;-68
2022/07/15 06:31:01;;;;;;;13.00;6.50;;;21.50;28.50;;;;;;5029057;28;20433;-68
2022/07/15 06:33:27;;;;;;;9.17;6.43;;;21.50;28.40;;;;;;5027225;28;20178;-67
2022/07/15 06:35:52;;;;;;;12.30;6.00;;;22.10;27.50;;;;;;5025995;28;20441;-67
2022/07/15 06:38:19;;;;;;;9.40;6.13;;;22.30;27.20;;;;;;5028148;28;20685;-68
2022/07/15 06:40:44;;;;;;;12.40;6.60;;;22.40;26.90;;;;;;5025981;28;20192;-68
2022/07/15 06:43:10;;;;;;;14.03;6.57;;;22.50;26.00;;;;;;5027278;28;20463;-68
2022/07/15 06:45:36;;;;;;;8.97;6.60;;;22.00;26.80;;;;;;5027049;28;20260;-68
2022/07/15 06:48:02;;;;;;;18.60;7.00;;;22.10;27.50;;;;;;5023713;28;20509;-68
2022/07/15 06:50:27;;;;;;;12.47;7.50;;;22.50;26.60;;;;;;5028066;28;20560;-68
2022/07/15 06:52:53;;;;;;;17.23;7.00;;;22.30;26.00;;;;;;5022458;28;20247;-68
2022/07/15 06:55:20;;;;;;;13.60;8.00;;;22.00;26.80;;;;;;5025990;28;20238;-68
2022/07/15 06:57:46;;;;;;;17.67;7.53;;;22.00;26.80;;;;;;5029816;28;20445;-68
2022/07/15 07:00:13;;;;;;;17.10;7.00;;;22.40;25.90;;;;;;5027946;28;20883;-68
2022/07/15 07:02:39;;;;;;;13.30;7.50;;;22.00;26.20;;;;;;5024702;28;20733;-67
2022/07/15 07:05:05;;;;;;;13.70;6.77;;;22.40;25.70;;;;;;5029430;28;20523;-68
2022/07/15 07:07:31;;;;;;;16.73;6.90;;;23.00;27.00;;;;;;5030590;28;20216;-68
2022/07/15 07:09:56;;;;;;;20.33;7.10;;;23.40;24.90;;;;;;5032987;28;20444;-67
2022/07/15 07:12:22;;;;;;;10.10;6.67;;;23.20;24.70;;;;;;5026427;28;20235;-67
2022/07/15 07:14:48;;;;;;;16.63;6.87;;;22.50;25.40;;;;;;5029089;28;20194;-68
2022/07/15 07:17:14;;;;;;;9.60;6.30;;;22.70;26.00;;;;;;5030126;28;20218;-68
2022/07/15 07:19:39;;;;;;;17.13;7.20;;;22.90;25.50;;;;;;5028861;28;20512;-68
2022/07/15 07:22:05;;;;;;;9.63;6.70;;;22.70;25.60;;;;;;5027326;28;20617;-68
2022/07/15 07:24:31;;;;;;;10.47;5.80;;;22.30;26.10;;;;;;5031480;28;20185;-68
2022/07/15 07:26:57;;;;;;;11.57;6.00;;;22.80;25.70;;;;;;5032144;28;21004;-68
2022/07/15 07:29:22;;;;;;;11.97;6.00;;;22.60;25.50;;;;;;5031621;28;20599;-68
2022/07/15 07:31:51;;;;;;;12.23;5.60;;;22.00;25.90;;;;;;5026294;28;20533;-69
2022/07/15 07:34:19;;;;;;;10.33;5.27;;;22.70;24.50;;;;;;5029965;28;20196;-69
2022/07/15 07:36:45;;;;;;;11.00;5.10;;;23.00;23.00;;;;;;5024321;28;20938;-68
2022/07/15 07:39:12;;;;;;;9.00;4.87;;;23.50;22.70;;;;;;5030331;28;20501;-68
2022/07/15 07:41:38;;;;;;;21.00;5.17;;;23.30;21.70;;;;;;5031987;28;20512;-68
2022/07/15 07:44:05;;;;;;;9.53;4.60;;;23.80;22.90;;;;;;5031592;28;20579;-68
2022/07/15 07:46:31;;;;;;;8.77;4.30;;;24.30;22.30;;;;;;5022897;28;20258;-67
2022/07/15 07:48:57;;;;;;;11.00;4.97;;;24.60;21.90;;;;;;5025908;28;20458;-70
2022/07/15 07:51:23;;;;;;;13.63;4.80;;;24.80;22.50;;;;;;5028428;28;20208;-67
2022/07/15 07:53:48;;;;;;;8.20;5.10;;;24.70;22.50;;;;;;5029977;28;20439;-68
2022/07/15 07:56:14;;;;;;;15.53;5.77;;;24.90;21.20;;;;;;5027766;28;20290;-67
2022/07/15 07:58:40;;;;;;;8.90;4.60;;;25.00;22.00;;;;;;5030493;28;20286;-68
2022/07/15 08:01:05;;;;;;;14.17;5.30;;;25.00;20.60;;;;;;5029069;28;20230;-70
2022/07/15 08:03:31;;;;;;;13.40;5.50;;;25.00;20.60;;;;;;5026561;28;20208;-68
2022/07/15 08:05:57;;;;;;;14.93;5.50;;;24.40;22.00;;;;;;5027751;28;20204;-68
2022/07/15 08:08:23;;;;;;;12.73;5.20;;;24.60;21.50;;;;;;5027238;28;20609;-67
2022/07/15 08:10:51;;;;;;;8.90;5.10;;;24.10;21.20;;;;;;5030020;28;20181;-67
2022/07/15 08:13:19;;;;;;;8.50;4.80;;;24.00;21.50;;;;;;5025429;28;20449;-67
2022/07/15 08:15:45;;;;;;;10.10;5.40;;;24.30;22.30;;;;;;5025344;28;20441;-67
2022/07/15 08:18:11;;;;;;;8.27;5.00;;;25.00;21.60;;;;;;5028682;28;20442;-67
2022/07/15 08:20:38;;;;;;;11.10;4.57;;;25.10;21.30;;;;;;5029873;28;20435;-69
2022/07/15 08:23:04;;;;;;;17.13;5.03;;;25.50;21.80;;;;;;5029084;28;20550;-67
2022/07/15 08:25:33;;;;;;;9.10;5.10;;;24.90;20.30;;;;;;5030605;28;20431;-68
2022/07/15 08:27:59;;;;;;;11.50;5.00;;;25.00;21.50;;;;;;5025004;28;20938;-66
2022/07/15 08:30:26;;;;;;;8.80;4.90;;;24.90;20.50;;;;;;5027387;28;20533;-68
2022/07/15 08:32:53;;;;;;;12.00;4.60;;;23.90;21.50;;;;;;5028762;28;21199;-68
2022/07/15 08:35:18;;;;;;;5.50;4.20;;;24.00;22.10;;;;;;5028510;28;20455;-66
2022/07/15 08:37:44;;;;;;;9.40;4.83;;;24.10;21.10;;;;;;5032076;28;20426;-69
2022/07/15 08:40:10;;;;;;;7.70;4.83;;;24.20;22.90;;;;;;5028235;28;20212;-66
2022/07/15 08:42:41;;;;;;;10.53;4.30;;;25.10;22.90;;;;;;5029382;28;20920;-67
2022/07/15 08:45:08;;;;;;;10.60;4.80;;;25.40;19.50;;;;;;5026721;28;20445;-67
2022/07/15 08:47:38;;;;;;;7.50;4.63;;;25.80;19.80;;;;;;5029264;28;20435;-67
2022/07/15 08:50:04;;;;;;;8.40;4.60;;;26.00;20.30;;;;;;5029717;28;20485;-70
2022/07/15 08:52:33;;;;;;;11.83;4.80;;;26.30;18.50;;;;;;5030184;28;20870;-67
2022/07/15 08:55:00;;;;;;;7.70;4.10;;;25.80;18.60;;;;;;5030672;28;20438;-67
2022/07/15 08:57:25;;;;;;;11.20;4.50;;;25.90;18.50;;;;;;5027012;28;20505;-69
2022/07/15 08:59:52;;;;;;;9.47;4.53;;;26.10;18.40;;;;;;5024800;28;20462;-68
2022/07/15 09:02:21;;;;;;;16.83;4.33;;;26.20;18.90;;;;;;5027272;28;20220;-68
2022/07/15 09:05:17;;;;;;;10.00;4.50;;;26.50;17.50;;;;;;5028212;28;20431;-67
2022/07/15 09:08:13;;;;;;;7.77;3.70;;;26.70;18.00;;;;;;5027149;28;20462;-67
2022/07/15 09:10:52;;;;;;;7.77;4.20;;;26.70;17.40;;;;;;5025368;28;20427;-67
2022/07/15 09:13:33;;;;;;;10.10;4.10;;;26.60;18.20;;;;;;5029090;28;20459;-68
2022/07/15 09:16:02;;;;;;;6.30;4.07;;;26.50;18.10;;;;;;5029392;28;20497;-67
2022/07/15 09:18:35;;;;;;;10.13;4.40;;;26.70;17.70;;;;;;5025905;28;20493;-67
2022/07/15 09:21:01;;;;;;;7.10;4.17;;;26.70;17.20;;;;;;5027283;28;20877;-67
2022/07/15 09:23:30;;;;;;;9.13;4.40;;;25.90;17.70;;;;;;5028602;28;20541;-67
2022/07/15 09:26:20;;;;;;;10.00;4.20;;;26.00;17.50;;;;;;5027090;28;20442;-68
2022/07/15 09:28:46;;;;;;;10.63;4.80;;;25.50;17.40;;;;;;5024172;28;20463;-67
2022/07/15 09:34:02;;;;;;;12.40;4.70;;;25.20;18.40;;;;;;5029330;28;20194;-68
2022/07/15 09:36:32;;;;;;;6.07;4.27;;;25.30;17.80;;;;;;5031011;28;20451;-67
2022/07/15 09:39:04;;;;;;;8.60;4.60;;;25.20;18.50;;;;;;5021422;28;20475;-67
2022/07/15 09:41:33;;;;;;;9.87;4.43;;;25.50;17.00;;;;;;5022310;28;20439;-67
2022/07/15 09:44:01;;;;;;;6.23;4.53;;;25.90;16.30;;;;;;5022067;28;20529;-67
2022/07/15 09:46:43;;;;;;;8.10;4.73;;;25.60;17.10;;;;;;5027974;28;20442;-68
2022/07/15 09:49:11;;;;;;;8.40;4.70;;;25.20;16.80;;;;;;5027652;28;20477;-69
2022/07/15 09:52:02;;;;;;;7.10;4.30;;;25.60;18.20;;;;;;5027967;28;20895;-67
2022/07/15 09:54:37;;;;;;;12.43;4.40;;;26.40;15.60;;;;;;5020594;28;20439;-67
2022/07/15 09:57:14;;;;;;;8.20;4.70;;;26.40;15.80;;;;;;5024635;28;20491;-67
2022/07/15 09:59:40;;;;;;;9.13;4.67;;;25.60;16.10;;;;;;5023592;28;20943;-67
2022/07/15 10:02:05;;;;;;;16.50;4.83;;;25.10;17.90;;;;;;5030180;28;20459;-67
2022/07/15 10:04:31;;;;;;;5.90;4.20;;;25.80;16.30;;;;;;5028262;28;20183;-68
2022/07/15 10:07:03;;;;;;;11.13;4.50;;;26.40;17.80;;;;;;5024636;28;20575;-69
2022/07/15 10:09:36;;;;;;;6.20;4.30;;;26.90;15.90;;;;;;5030458;28;20493;-67
2022/07/15 10:12:12;;;;;;;9.47;4.87;;;26.00;16.40;;;;;;5029829;28;20438;-67
2022/07/15 10:14:46;;;;;;;8.60;4.17;;;25.60;17.30;;;;;;5021433;28;20430;-68
2022/07/15 10:17:33;;;;;;;12.00;4.70;;;25.40;17.80;;;;;;5030864;28;20414;-67
2022/07/15 10:20:33;;;;;;;11.77;4.50;;;26.30;16.90;;;;;;5026999;28;20466;-68
2022/07/15 10:23:22;;;;;;;8.33;4.90;;;26.60;16.40;;;;;;5027022;28;20469;-68
2022/07/15 10:25:55;;;;;;;9.47;4.43;;;26.00;17.10;;;;;;5020502;28;20432;-68
2022/07/15 10:29:03;;;;;;;10.90;4.73;;;25.80;17.40;;;;;;5023029;28;20455;-67
2022/07/15 10:31:31;;;;;;;8.77;4.50;;;25.70;17.10;;;;;;4963311;28;20434;-67
2022/07/15 10:34:03;;;;;;;5.90;4.73;;;26.50;18.90;;;;;;4966856;28;20979;-68
2022/07/15 10:37:01;;;;;;;13.10;5.47;;;26.60;15.90;;;;;;4969090;28;20430;-67
2022/07/15 10:39:49;;;;;;;9.90;4.40;;;26.60;16.70;;;;;;4972154;28;20479;-67
2022/07/15 10:42:15;;;;;;;13.53;4.73;;;27.50;15.80;;;;;;4957969;28;20462;-67
2022/07/15 10:45:00;;;;;;;9.43;4.73;;;27.00;15.30;;;;;;4959535;28;20448;-67
2022/07/15 10:47:26;;;;;;;7.63;4.50;;;27.60;15.70;;;;;;4967636;28;20437;-70
2022/07/15 10:49:51;;;;;;;11.80;4.63;;;28.00;16.00;;;;;;4964520;28;20485;-67
2022/07/15 10:52:22;;;;;;;7.83;4.40;;;28.70;13.90;;;;;;4961659;28;20449;-67
2022/07/15 10:55:08;;;;;;;7.10;4.70;;;28.90;15.00;;;;;;4954626;28;20189;-67
2022/07/15 10:57:54;;;;;;;9.63;4.63;;;28.20;13.70;;;;;;4955610;28;20441;-68
2022/07/15 11:00:33;;;;;;;5.50;4.30;;;28.20;14.50;;;;;;4961453;28;20441;-67
2022/07/15 11:03:02;;;;;;;10.03;4.57;;;28.60;13.60;;;;;;5021340;28;20502;-69
2022/07/15 11:05:28;;;;;;;6.00;4.37;;;27.50;14.90;;;;;;5031757;28;20431;-68
2022/07/15 11:07:54;;;;;;;9.83;5.17;;;28.00;14.60;;;;;;5030446;28;20419;-68
2022/07/15 11:10:21;;;;;;;19.70;5.00;;;26.70;14.90;;;;;;5033933;28;20430;-67
2022/07/15 11:12:50;;;;;;;13.83;4.83;;;27.40;17.10;;;;;;5033675;28;20262;-68
2022/07/15 11:15:18;;;;;;;6.17;4.20;;;27.30;15.00;;;;;;5032645;28;20447;-68
2022/07/15 11:17:46;;;;;;;6.27;4.40;;;26.70;15.80;;;;;;5033186;28;21135;-68
2022/07/15 11:20:33;;;;;;;15.53;4.53;;;27.00;15.40;;;;;;5028849;28;20503;-68
2022/07/15 11:23:00;;;;;;;9.63;4.70;;;27.50;17.50;;;;;;5028930;28;20467;-68
2022/07/15 11:25:27;;;;;;;8.00;4.10;;;28.90;16.40;;;;;;5031583;28;20438;-68
2022/07/15 11:28:03;;;;;;;8.50;4.30;;;29.70;14.50;;;;;;5031932;28;20538;-67
2022/07/15 11:30:34;;;;;;;12.90;4.63;;;29.80;13.70;;;;;;5028373;28;20513;-68
2022/07/15 11:33:01;;;;;;;9.43;4.50;;;28.70;14.40;;;;;;5029699;28;20488;-70
2022/07/15 11:35:29;;;;;;;5.90;3.80;;;27.90;15.30;;;;;;5031510;28;20442;-68
2022/07/15 11:38:00;;;;;;;9.60;4.90;;;28.70;14.40;;;;;;5033057;28;20427;-68
2022/07/15 11:46:06;;;;;;;7.07;3.87;;;33.40;9.50;;;;;;5030500;28;20426;-68
2022/07/15 11:48:37;;;;;;;4.57;3.80;;;32.60;9.40;;;;;;5022379;28;20447;-68
2022/07/15 11:51:03;;;;;;;12.33;4.10;;;33.00;10.20;;;;;;5030067;28;20449;-68
2022/07/15 11:53:40;;;;;;;6.27;3.63;;;33.20;9.80;;;;;;5026703;28;20432;-68
2022/07/15 11:56:06;;;;;;;6.57;4.00;;;33.00;9.50;;;;;;5040595;28;20422;-69
2022/07/15 11:58:34;;;;;;;5.07;4.10;;;33.60;9.30;;;;;;5031518;28;20458;-69
2022/07/15 12:01:07;;;;;;;5.60;3.77;;;34.30;9.10;;;;;;5028142;28;20461;-70
2022/07/15 12:03:47;;;;;;;9.77;5.70;;;33.70;9.30;;;;;;5031761;28;20477;-69
2022/07/15 12:06:15;;;;;;;8.83;4.17;;;33.30;8.90;;;;;;5031726;28;20494;-71
2022/07/15 12:08:52;;;;;;;7.37;4.10;;;32.30;11.40;;;;;;5033346;28;20792;-69
2022/07/15 12:11:26;;;;;;;7.63;5.00;;;31.60;11.20;;;;;;5031386;28;20521;-69
2022/07/15 12:13:57;;;;;;;6.70;4.23;;;30.70;11.50;;;;;;5031201;28;20441;-69
2022/07/15 12:16:30;;;;;;;7.47;4.03;;;30.50;12.80;;;;;;5026468;28;20458;-70
2022/07/15 12:19:09;;;;;;;10.23;4.10;;;31.30;11.10;;;;;;5032466;28;20503;-69
2022/07/15 12:21:40;;;;;;;14.63;4.60;;;31.80;11.60;;;;;;5027602;28;20800;-75
2022/07/15 12:24:10;;;;;;;9.03;4.60;;;29.70;11.90;;;;;;5032069;28;20459;-67
2022/07/15 12:26:38;;;;;;;15.33;4.57;;;28.40;13.20;;;;;;5032985;28;20593;-68
2022/07/15 12:29:06;;;;;;;7.10;4.27;;;29.30;12.90;;;;;;5031636;28;20513;-70
2022/07/15 12:31:33;;;;;;;8.93;4.50;;;30.50;11.70;;;;;;5030382;28;20426;-68
2022/07/15 12:33:59;;;;;;;5.70;4.00;;;31.40;11.80;;;;;;5032162;28;20446;-68
2022/07/15 12:36:33;;;;;;;7.80;4.13;;;32.50;10.60;;;;;;5033176;28;20430;-69
2022/07/15 12:39:06;;;;;;;8.33;4.07;;;33.50;8.70;;;;;;5024117;28;20465;-69
2022/07/15 12:41:34;;;;;;;6.43;4.63;;;34.00;9.60;;;;;;5030560;28;20462;-69
2022/07/15 12:44:01;;;;;;;9.30;4.83;;;34.60;8.10;;;;;;5030759;28;20451;-70
2022/07/15 12:46:46;;;;;;;8.03;4.33;;;35.10;7.70;;;;;;5032236;28;20918;-69
2022/07/15 12:49:12;;;;;;;6.60;4.23;;;35.40;8.70;;;;;;5023615;28;20446;-70
2022/07/15 12:51:38;;;;;;;5.70;3.90;;;35.20;7.80;;;;;;5028239;28;20529;-69
2022/07/15 12:54:05;;;;;;;10.40;4.47;;;34.70;7.40;;;;;;5031489;28;20922;-67
2022/07/15 12:56:50;;;;;;;6.23;4.30;;;33.80;7.40;;;;;;5029948;28;20212;-71
2022/07/15 12:59:16;;;;;;;5.93;4.40;;;33.80;9.00;;;;;;5025099;28;20459;-68
2022/07/15 13:02:04;;;;;;;9.07;4.87;;;33.90;8.50;;;;;;5028208;28;20952;-68